createdAt,value
2018-05-15T00:01:52.040Z,42.91
2018-05-15T00:04:18.294Z,42.72
2018-05-15T00:06:44.575Z,43.02
2018-05-15T00:09:11.667Z,42.58
2018-05-15T00:11:37.922Z,42.21
2018-05-15T00:14:04.192Z,44.11
2018-05-15T00:16:30.443Z,44.08
2018-05-15T00:18:56.686Z,44.85
2018-05-15T00:21:22.960Z,46.12
2018-05-15T00:23:49.980Z,46.08
2018-05-15T00:26:16.237Z,46.75
2018-05-15T00:28:43.229Z,46.72
2018-05-15T00:31:09.468Z,47.43
2018-05-15T00:33:35.734Z,47.36
2018-05-15T00:36:01.983Z,47.98
2018-05-15T00:38:29.006Z,47.36
2018-05-15T00:40:55.276Z,46.90
2018-05-15T00:43:21.547Z,46.93
2018-05-15T00:45:47.831Z,47.21
2018-05-15T00:48:14.134Z,47.21
2018-05-15T00:50:41.170Z,46.83
2018-05-15T00:53:08.155Z,47.46
2018-05-15T00:55:44.135Z,46.33
2018-05-15T00:58:10.452Z,46.21
2018-05-15T01:00:36.676Z,45.81
2018-05-15T01:03:03.015Z,45.69
2018-05-15T01:05:29.323Z,46.85
2018-05-15T01:07:56.309Z,47.45
2018-05-15T01:10:22.613Z,48.55
2018-05-15T01:12:48.871Z,48.58
2018-05-15T01:15:15.135Z,48.48
2018-05-15T01:17:41.417Z,48.57
2018-05-15T01:20:07.703Z,49.03
2018-05-15T01:22:34.715Z,48.88
2018-05-15T01:25:01.014Z,49.28
2018-05-15T01:27:27.273Z,48.66
2018-05-15T01:29:54.055Z,49.09
2018-05-15T01:32:21.044Z,49.80
2018-05-15T01:34:47.341Z,49.99
2018-05-15T01:37:15.152Z,50.53
2018-05-15T01:39:41.477Z,50.75
2018-05-15T01:42:07.737Z,50.79
2018-05-15T01:44:34.021Z,50.38
2018-05-15T01:47:00.252Z,50.69
2018-05-15T01:49:26.560Z,50.84
2018-05-15T01:51:53.634Z,50.95
2018-05-15T01:54:19.930Z,51.10
2018-05-15T01:56:46.932Z,51.42
2018-05-15T01:59:13.199Z,51.38
2018-05-15T02:01:39.476Z,51.59
2018-05-15T02:04:05.710Z,51.59
2018-05-15T02:06:31.978Z,51.84
2018-05-15T02:08:59.309Z,52.24
2018-05-15T02:11:25.558Z,53.16
2018-05-15T02:13:51.839Z,53.67
2018-05-15T02:16:18.103Z,53.68
2018-05-15T02:18:44.404Z,53.40
2018-05-15T02:21:10.654Z,53.10
2018-05-15T02:23:36.886Z,53.35
2018-05-15T02:26:03.182Z,53.59
2018-05-15T02:28:29.465Z,53.84
2018-05-15T02:30:55.829Z,53.80
2018-05-15T02:33:22.842Z,53.85
2018-05-15T02:35:49.121Z,54.65
2018-05-15T02:38:15.393Z,54.07
2018-05-15T02:40:41.715Z,54.18
2018-05-15T02:43:07.980Z,54.50
2018-05-15T02:45:34.272Z,54.93
2018-05-15T02:48:00.544Z,55.17
2018-05-15T02:50:27.586Z,55.17
2018-05-15T02:52:53.809Z,55.35
2018-05-15T02:55:20.815Z,54.97
2018-05-15T02:57:47.079Z,54.69
2018-05-15T03:00:13.394Z,54.85
2018-05-15T03:02:39.655Z,54.69
2018-05-15T03:05:05.924Z,54.93
2018-05-15T03:07:32.181Z,54.97
2018-05-15T03:09:58.461Z,54.89
2018-05-15T03:12:25.472Z,55.34
2018-05-15T03:14:51.769Z,55.08
2018-05-15T03:17:18.052Z,55.11
2018-05-15T03:19:45.091Z,55.17
2018-05-15T03:22:11.352Z,55.44
2018-05-15T03:24:38.394Z,55.56
2018-05-15T03:27:05.402Z,55.76
2018-05-15T03:29:31.635Z,55.91
2018-05-15T03:31:57.890Z,56.17
2018-05-15T03:34:24.914Z,56.20
2018-05-15T03:36:51.173Z,56.33
2018-05-15T03:39:18.193Z,56.08
2018-05-15T03:41:44.548Z,56.14
2018-05-15T03:44:11.563Z,56.01
2018-05-15T03:46:37.815Z,56.28
2018-05-15T03:49:04.105Z,56.34
2018-05-15T03:51:30.382Z,56.32
2018-05-15T03:53:57.360Z,56.41
2018-05-15T03:56:23.625Z,57.11
2018-05-15T03:58:49.900Z,56.95
2018-05-15T04:01:35.603Z,57.27
2018-05-15T04:04:20.480Z,57.38
2018-05-15T04:07:05.383Z,57.79
2018-05-15T04:09:31.683Z,57.93
2018-05-15T04:11:59.205Z,58.27
2018-05-15T04:14:26.203Z,58.08
2018-05-15T04:16:52.466Z,57.92
2018-05-15T04:19:19.456Z,58.05
2018-05-15T04:21:45.736Z,58.31
2018-05-15T04:24:12.002Z,58.17
2018-05-15T04:26:38.257Z,58.43
2018-05-15T04:29:04.529Z,58.42
2018-05-15T04:31:31.525Z,58.51
2018-05-15T04:33:57.795Z,58.44
2018-05-15T04:36:24.112Z,57.90
2018-05-15T04:38:50.386Z,57.17
2018-05-15T04:41:17.408Z,56.86
2018-05-15T04:43:43.800Z,56.92
2018-05-15T04:46:10.026Z,56.73
2018-05-15T04:48:36.315Z,56.67
2018-05-15T04:51:03.417Z,56.58
2018-05-15T04:53:29.646Z,55.66
2018-05-15T04:55:55.965Z,54.44
2018-05-15T04:58:22.247Z,54.22
2018-05-15T05:00:49.279Z,53.10
2018-05-15T05:03:15.550Z,53.86
2018-05-15T05:05:42.606Z,52.95
2018-05-15T05:08:08.895Z,52.87
2018-05-15T05:10:35.229Z,51.27
2018-05-15T05:13:02.211Z,50.68
2018-05-15T05:15:28.475Z,50.05
2018-05-15T05:17:54.754Z,50.60
2018-05-15T05:20:21.756Z,50.98
2018-05-15T05:22:48.029Z,51.02
2018-05-15T05:25:15.014Z,50.36
2018-05-15T05:27:41.292Z,49.40
2018-05-15T05:30:08.248Z,49.69
2018-05-15T05:32:35.257Z,49.03
2018-05-15T05:35:01.560Z,48.73
2018-05-15T05:37:27.923Z,48.35
2018-05-15T05:39:54.182Z,47.10
2018-05-15T05:42:20.447Z,46.55
2018-05-15T05:44:46.722Z,46.15
2018-05-15T05:47:13.040Z,45.90
2018-05-15T05:49:39.293Z,46.75
2018-05-15T05:52:05.627Z,47.61
2018-05-15T05:54:31.880Z,47.68
2018-05-15T05:56:58.910Z,46.57
2018-05-15T05:59:25.194Z,46.54
2018-05-15T06:01:51.490Z,45.17
2018-05-15T06:04:18.487Z,45.87
2018-05-15T06:06:44.795Z,46.34
2018-05-15T06:09:11.053Z,46.05
2018-05-15T06:11:37.341Z,47.15
2018-05-15T06:14:03.619Z,47.87
2018-05-15T06:16:29.916Z,46.82
2018-05-15T06:18:56.182Z,45.30
2018-05-15T06:21:22.475Z,44.72
2018-05-15T06:23:48.735Z,44.26
2018-05-15T06:26:15.013Z,43.50
2018-05-15T06:28:41.274Z,43.94
2018-05-15T06:31:07.579Z,44.20
2018-05-15T06:33:33.851Z,44.66
2018-05-15T06:36:00.131Z,45.01
2018-05-15T06:38:26.469Z,44.85
2018-05-15T06:40:53.478Z,44.55
2018-05-15T06:43:21.241Z,43.80
2018-05-15T06:45:48.956Z,44.43
2018-05-15T06:48:15.250Z,42.60
2018-05-15T06:50:42.248Z,42.67
2018-05-15T06:53:08.487Z,42.22
2018-05-15T06:55:34.751Z,42.39
2018-05-15T06:58:01.019Z,41.95
2018-05-15T07:00:27.266Z,41.35
2018-05-15T07:02:53.568Z,41.74
2018-05-15T07:05:19.856Z,40.54
2018-05-15T07:07:46.202Z,40.65
2018-05-15T07:10:12.675Z,40.17
2018-05-15T07:12:38.955Z,40.88
2018-05-15T07:15:05.214Z,40.05
2018-05-15T07:17:32.258Z,39.55
2018-05-15T07:19:59.268Z,40.31
2018-05-15T07:22:25.620Z,39.22
2018-05-15T07:24:51.929Z,38.40
2018-05-15T07:27:18.309Z,38.18
2018-05-15T07:29:44.521Z,38.37
2018-05-15T07:32:10.936Z,37.93
2018-05-15T07:34:37.243Z,38.28
2018-05-15T07:37:03.675Z,38.46
2018-05-15T07:39:30.049Z,38.69
2018-05-15T07:41:57.074Z,39.81
2018-05-15T07:44:23.340Z,39.03
2018-05-15T07:46:50.343Z,39.49
2018-05-15T07:49:16.608Z,39.29
2018-05-15T07:51:43.609Z,39.18
2018-05-15T07:54:09.868Z,38.85
2018-05-15T07:56:36.880Z,38.34
2018-05-15T07:59:03.170Z,38.16
2018-05-15T08:01:30.155Z,38.09
2018-05-15T08:03:56.458Z,37.46
2018-05-15T08:06:22.748Z,37.35
2018-05-15T08:08:50.559Z,38.16
2018-05-15T08:11:16.833Z,38.22
2018-05-15T08:13:43.097Z,38.31
2018-05-15T08:16:10.127Z,37.86
2018-05-15T08:18:37.881Z,38.59
2018-05-15T08:21:04.151Z,39.39
2018-05-15T08:23:31.156Z,39.54
2018-05-15T08:25:57.431Z,39.89
2018-05-15T08:28:23.734Z,38.88
2018-05-15T08:30:50.108Z,38.90
2018-05-15T08:33:16.333Z,38.32
2018-05-15T08:35:42.602Z,39.22
2018-05-15T08:38:08.866Z,38.50
2018-05-15T08:40:35.908Z,38.01
2018-05-15T08:43:03.004Z,37.81
2018-05-15T08:45:29.466Z,38.61
2018-05-15T08:47:55.586Z,38.03
2018-05-15T08:50:21.869Z,38.15
2018-05-15T08:52:48.160Z,38.32
2018-05-15T08:55:15.922Z,38.71
2018-05-15T08:57:42.235Z,38.07
2018-05-15T09:00:08.540Z,38.24
2018-05-15T09:02:34.902Z,38.19
2018-05-15T09:05:01.189Z,35.93
2018-05-15T09:07:28.271Z,35.15
2018-05-15T09:09:54.604Z,33.40
2018-05-15T09:12:20.884Z,33.74
2018-05-15T09:14:48.063Z,33.27
2018-05-15T09:17:14.382Z,34.19
2018-05-15T09:19:40.674Z,33.12
2018-05-15T09:22:07.113Z,33.00
2018-05-15T09:24:33.407Z,32.33
2018-05-15T09:26:59.677Z,32.38
2018-05-15T09:29:26.105Z,31.99
2018-05-15T09:31:52.319Z,31.38
2018-05-15T09:34:18.646Z,32.09
2018-05-15T09:36:44.970Z,31.73
2018-05-15T09:39:11.259Z,31.83
2018-05-15T09:41:37.553Z,32.14
2018-05-15T09:44:04.102Z,31.30
2018-05-15T09:46:30.366Z,30.50
2018-05-15T09:48:56.679Z,30.66
2018-05-15T09:51:23.098Z,31.94
2018-05-15T09:53:50.504Z,31.43
2018-05-15T09:56:16.928Z,31.04
2018-05-15T09:58:43.249Z,30.68
2018-05-15T10:01:09.500Z,30.53
2018-05-15T10:03:35.799Z,30.36
2018-05-15T10:06:02.092Z,31.02
2018-05-15T10:08:28.365Z,30.75
2018-05-15T10:10:54.653Z,30.11
2018-05-15T10:13:27.905Z,30.84
2018-05-15T10:15:54.215Z,30.36
2018-05-15T10:18:20.621Z,30.65
2018-05-15T10:20:46.942Z,31.35
2018-05-15T10:23:13.284Z,30.71
2018-05-15T10:25:39.766Z,31.11
2018-05-15T10:28:06.165Z,30.91
2018-05-15T10:30:33.233Z,31.71
2018-05-15T10:32:59.654Z,32.09
2018-05-15T10:35:25.997Z,33.40
2018-05-15T10:37:52.276Z,34.16
2018-05-15T10:40:18.611Z,34.89
2018-05-15T10:42:44.935Z,34.81
2018-05-15T10:45:11.305Z,35.65
2018-05-15T10:47:38.421Z,36.29
2018-05-15T10:50:04.767Z,37.38
2018-05-15T10:52:31.073Z,38.11
2018-05-15T10:54:57.375Z,42.16
2018-05-15T10:57:23.751Z,39.86
2018-05-15T10:59:50.202Z,42.32
2018-05-15T11:02:16.554Z,45.34
2018-05-15T11:04:43.734Z,47.58
2018-05-15T11:07:10.053Z,51.68
2018-05-15T11:09:36.395Z,56.06
2018-05-15T11:12:02.985Z,54.84
2018-05-15T11:14:29.995Z,56.02
2018-05-15T11:16:56.260Z,58.23
2018-05-15T11:19:42.337Z,60.73
2018-05-15T11:22:27.399Z,60.50
2018-05-15T11:24:53.665Z,61.49
2018-05-15T11:27:20.774Z,61.67
2018-05-15T11:29:47.089Z,61.23
2018-05-15T11:32:13.380Z,60.56
2018-05-15T11:34:40.551Z,62.90
2018-05-15T11:37:06.836Z,61.69
2018-05-15T11:39:33.249Z,60.51
2018-05-15T11:41:59.636Z,60.16
2018-05-15T11:44:25.913Z,59.01
2018-05-15T11:46:52.390Z,58.27
2018-05-15T11:49:20.028Z,58.72
2018-05-15T11:51:47.085Z,59.73
2018-05-15T11:54:12.288Z,59.64
2018-05-15T11:56:38.614Z,57.94
2018-05-15T11:59:04.920Z,59.64
2018-05-15T12:01:31.217Z,56.43
2018-05-15T12:03:57.572Z,55.47
2018-05-15T12:06:23.851Z,53.68
2018-05-15T12:08:50.875Z,50.00
2018-05-15T12:11:17.203Z,51.18
2018-05-15T12:13:43.474Z,52.88
2018-05-15T12:16:10.579Z,54.86
2018-05-15T12:18:36.821Z,54.08
2018-05-15T12:21:03.146Z,55.54
2018-05-15T12:23:29.370Z,52.88
2018-05-15T12:25:55.694Z,53.47
2018-05-15T12:28:21.944Z,51.71
2018-05-15T12:30:48.979Z,52.66
2018-05-15T12:33:15.290Z,44.65
2018-05-15T12:35:41.594Z,45.06
2018-05-15T12:38:07.894Z,45.34
2018-05-15T12:40:34.960Z,42.92
2018-05-15T12:43:01.962Z,44.12
2018-05-15T12:45:28.240Z,47.35
2018-05-15T12:47:55.316Z,46.20
2018-05-15T12:50:22.291Z,46.87
2018-05-15T12:52:48.566Z,47.54
2018-05-15T12:55:15.602Z,47.56
2018-05-15T12:57:42.598Z,45.90
2018-05-15T13:00:08.846Z,44.26
2018-05-15T13:02:35.170Z,45.93
2018-05-15T13:05:01.463Z,47.42
2018-05-15T13:07:27.777Z,48.18
2018-05-15T13:09:54.777Z,46.42
2018-05-15T13:12:21.296Z,46.73
2018-05-15T13:14:47.580Z,47.77
2018-05-15T13:17:14.598Z,46.14
2018-05-15T13:19:40.846Z,45.10
2018-05-15T13:22:07.130Z,44.44
2018-05-15T13:24:33.500Z,44.81
2018-05-15T13:27:01.175Z,43.04
2018-05-15T13:29:28.195Z,44.08
2018-05-15T13:31:54.498Z,44.50
2018-05-15T13:34:20.780Z,45.07
2018-05-15T13:36:47.795Z,45.33
2018-05-15T13:39:14.095Z,43.70
2018-05-15T13:41:40.351Z,43.74
2018-05-15T13:44:06.643Z,42.82
2018-05-15T13:46:32.911Z,42.67
2018-05-15T13:48:59.202Z,37.68
2018-05-15T13:51:26.190Z,37.74
2018-05-15T13:53:52.433Z,37.26
2018-05-15T13:56:18.739Z,38.51
2018-05-15T13:58:45.027Z,37.53
2018-05-15T14:01:12.047Z,35.00
2018-05-15T14:03:38.287Z,34.69
2018-05-15T14:06:04.577Z,31.99
2018-05-15T14:08:30.831Z,33.06
2018-05-15T14:10:57.127Z,34.91
2018-05-15T14:13:23.425Z,35.97
2018-05-15T14:15:50.461Z,36.13
2018-05-15T14:18:17.471Z,37.66
2018-05-15T14:20:43.733Z,38.33
2018-05-15T14:23:10.019Z,38.62
2018-05-15T14:25:36.326Z,40.21
2018-05-15T14:28:02.607Z,40.91
2018-05-15T14:30:28.870Z,41.77
2018-05-15T14:32:55.910Z,42.21
2018-05-15T14:35:22.948Z,43.07
2018-05-15T14:37:49.243Z,41.11
2018-05-15T14:40:15.508Z,41.36
2018-05-15T14:43:00.463Z,42.34
2018-05-15T14:45:26.743Z,42.10
2018-05-15T14:47:53.063Z,42.53
2018-05-15T14:50:20.123Z,42.25
2018-05-15T14:52:46.430Z,41.73
2018-05-15T14:55:13.454Z,40.10
2018-05-15T14:57:39.735Z,39.85
2018-05-15T15:00:05.973Z,39.17
2018-05-15T15:02:32.283Z,38.99
2018-05-15T15:04:58.609Z,40.45
2018-05-15T15:07:25.606Z,40.41
2018-05-15T15:09:51.899Z,41.25
2018-05-15T15:12:18.159Z,41.75
2018-05-15T15:14:44.435Z,41.74
2018-05-15T15:17:11.469Z,41.90
2018-05-15T15:19:37.830Z,44.83
2018-05-15T15:22:04.978Z,43.89
2018-05-15T15:24:32.025Z,46.11
2018-05-15T15:26:59.072Z,47.98
2018-05-15T15:29:26.203Z,45.40
2018-05-15T15:32:05.970Z,42.23
2018-05-15T15:34:32.989Z,36.96
2018-05-15T15:36:59.428Z,29.54
2018-05-15T15:39:25.855Z,24.98
2018-05-15T15:41:52.182Z,24.12
2018-05-15T15:44:18.562Z,21.73
2018-05-15T15:46:45.004Z,21.00
2018-05-15T15:49:11.490Z,19.66
2018-05-15T15:51:37.821Z,20.77
2018-05-15T15:54:04.130Z,21.21
2018-05-15T15:56:30.525Z,24.49
2018-05-15T15:58:56.913Z,27.05
2018-05-15T16:01:23.245Z,23.32
2018-05-15T16:03:49.574Z,23.15
2018-05-15T16:06:15.939Z,21.96
2018-05-15T16:08:42.338Z,19.36
2018-05-15T16:11:08.687Z,17.99
2018-05-15T16:13:35.814Z,21.00
2018-05-15T16:16:02.227Z,25.57
2018-05-15T16:18:28.627Z,31.28
2018-05-15T16:20:54.987Z,34.15
2018-05-15T16:23:21.343Z,36.70
2018-05-15T16:25:47.704Z,35.68
2018-05-15T16:28:14.821Z,37.27
2018-05-15T16:30:41.164Z,40.01
2018-05-15T16:33:07.520Z,41.45
2018-05-15T16:35:34.592Z,40.82
2018-05-15T16:38:00.940Z,42.00
2018-05-15T16:40:27.295Z,42.57
2018-05-15T16:42:53.701Z,40.19
2018-05-15T16:45:20.063Z,34.08
2018-05-15T16:47:46.418Z,30.45
2018-05-15T16:50:12.761Z,33.29
2018-05-15T16:52:39.967Z,35.41
2018-05-15T16:55:07.045Z,38.23
2018-05-15T16:57:33.438Z,38.29
2018-05-15T16:59:59.823Z,36.98
2018-05-15T17:02:26.165Z,34.28
2018-05-15T17:04:53.246Z,34.87
2018-05-15T17:07:19.560Z,32.39
2018-05-15T17:09:45.889Z,28.89
2018-05-15T17:12:12.178Z,29.49
2018-05-15T17:14:38.543Z,32.86
2018-05-15T17:17:05.997Z,36.71
2018-05-15T17:19:32.371Z,39.95
2018-05-15T17:21:58.688Z,43.44
2018-05-15T17:24:25.098Z,45.03
2018-05-15T17:26:52.472Z,46.62
2018-05-15T17:29:18.830Z,48.61
2018-05-15T17:31:45.185Z,49.50
2018-05-15T17:34:11.589Z,50.10
2018-05-15T17:36:38.340Z,49.67
2018-05-15T17:39:05.480Z,50.63
2018-05-15T17:41:31.825Z,50.45
2018-05-15T17:43:58.106Z,50.56
2018-05-15T17:46:24.563Z,49.90
2018-05-15T17:48:50.909Z,50.81
2018-05-15T17:51:17.231Z,51.10
2018-05-15T17:53:43.600Z,51.98
2018-05-15T17:56:10.014Z,52.75
2018-05-15T17:58:36.345Z,52.79
2018-05-15T18:01:02.710Z,53.78
2018-05-15T18:03:29.802Z,53.88
2018-05-15T18:05:56.137Z,53.75
2018-05-15T18:08:22.490Z,53.35
2018-05-15T18:10:49.493Z,53.53
2018-05-15T18:13:15.831Z,54.24
2018-05-15T18:15:42.243Z,53.26
2018-05-15T18:18:09.276Z,53.17
2018-05-15T18:20:35.636Z,54.08
2018-05-15T18:23:01.970Z,54.74
2018-05-15T18:25:28.332Z,54.61
2018-05-15T18:27:54.763Z,55.08
2018-05-15T18:30:21.195Z,54.06
2018-05-15T18:32:47.523Z,53.83
2018-05-15T18:35:13.965Z,54.19
2018-05-15T18:37:41.245Z,53.80
2018-05-15T18:40:07.781Z,54.10
2018-05-15T18:42:34.329Z,54.18
2018-05-15T18:45:01.626Z,54.24
2018-05-15T18:47:28.052Z,54.28
2018-05-15T18:49:54.520Z,54.72
2018-05-15T18:52:20.893Z,54.47
2018-05-15T18:54:48.120Z,54.40
2018-05-15T18:57:14.575Z,54.48
2018-05-15T18:59:40.981Z,54.82
2018-05-15T19:02:07.382Z,54.68
2018-05-15T19:04:33.786Z,55.17
2018-05-15T19:07:00.974Z,55.11
2018-05-15T19:09:27.349Z,55.25
2018-05-15T19:11:54.462Z,56.04
2018-05-15T19:14:20.814Z,56.64
2018-05-15T19:16:47.194Z,56.26
2018-05-15T19:19:13.776Z,56.96
2018-05-15T19:21:40.233Z,57.88
2018-05-15T19:24:06.703Z,59.38
2018-05-15T19:26:33.130Z,58.71
2018-05-15T19:28:59.540Z,59.13
2018-05-15T19:31:32.136Z,58.81
2018-05-15T19:33:58.473Z,58.72
2018-05-15T19:36:30.201Z,58.15
2018-05-15T19:39:03.329Z,57.89
2018-05-15T19:41:29.670Z,57.50
2018-05-15T19:43:56.042Z,57.59
2018-05-15T19:46:22.448Z,57.86
2018-05-15T19:48:48.800Z,58.88
2018-05-15T19:51:15.206Z,59.59
2018-05-15T19:53:42.559Z,60.38
2018-05-15T19:56:08.900Z,60.57
2018-05-15T19:58:35.223Z,60.67
2018-05-15T20:01:01.536Z,61.29
2018-05-15T20:03:27.863Z,61.04
2018-05-15T20:05:54.283Z,61.12
2018-05-15T20:08:20.721Z,61.50
2018-05-15T20:10:47.819Z,61.80
2018-05-15T20:13:14.192Z,62.26
2018-05-15T20:15:41.347Z,62.44
2018-05-15T20:18:08.409Z,62.62
2018-05-15T20:20:34.854Z,62.48
2018-05-15T20:23:01.217Z,62.30
2018-05-15T20:25:27.533Z,62.82
2018-05-15T20:27:53.834Z,62.76
2018-05-15T20:30:20.253Z,63.18
2018-05-15T20:32:47.308Z,63.52
2018-05-15T20:35:13.646Z,63.43
2018-05-15T20:37:41.084Z,63.33
2018-05-15T20:40:07.486Z,63.58
2018-05-15T20:42:33.868Z,64.08
2018-05-15T20:45:00.999Z,64.19
2018-05-15T20:47:27.329Z,64.50
2018-05-15T20:49:53.688Z,64.31
2018-05-15T20:52:20.079Z,64.23
2018-05-15T20:54:46.463Z,64.90
2018-05-15T20:57:12.910Z,65.44
2018-05-15T20:59:39.216Z,65.89
2018-05-15T21:02:05.551Z,66.17
2018-05-15T21:04:31.901Z,66.69
2018-05-15T21:06:58.411Z,66.51
2018-05-15T21:09:25.161Z,66.47
2018-05-15T21:11:51.509Z,66.60
2018-05-15T21:14:17.858Z,65.95
2018-05-15T21:16:44.229Z,65.42
2018-05-15T21:19:11.661Z,65.31
2018-05-15T21:21:37.988Z,65.11
2018-05-15T21:24:04.687Z,65.52
2018-05-15T21:26:31.166Z,65.71
2018-05-15T21:28:57.496Z,65.77
2018-05-15T21:31:24.054Z,65.35
2018-05-15T21:33:50.414Z,64.83
2018-05-15T21:36:16.818Z,64.83
2018-05-15T21:38:43.180Z,64.81
2018-05-15T21:41:09.954Z,65.79
2018-05-15T21:43:36.478Z,65.50
2018-05-15T21:46:02.837Z,65.31
2018-05-15T21:48:30.068Z,64.88
2018-05-15T21:50:56.389Z,64.36
2018-05-15T21:53:22.884Z,64.10
2018-05-15T21:55:49.186Z,63.48
2018-05-15T21:58:15.594Z,63.66
2018-05-15T22:00:41.896Z,63.32
2018-05-15T22:03:08.965Z,62.61
2018-05-15T22:05:35.343Z,62.41
2018-05-15T22:08:01.889Z,62.03
2018-05-15T22:10:28.176Z,62.99
2018-05-15T22:13:13.319Z,61.93
2018-05-15T22:15:58.315Z,61.23
2018-05-15T22:18:43.194Z,60.93
2018-05-15T22:21:28.111Z,60.43
2018-05-15T22:23:55.017Z,61.92
2018-05-15T22:26:22.427Z,62.63
2018-05-15T22:28:48.930Z,62.26
2018-05-15T22:31:15.241Z,62.65
2018-05-15T22:33:41.952Z,62.06
2018-05-15T22:36:08.314Z,61.41
2018-05-15T22:38:34.691Z,60.79
2018-05-15T22:41:01.107Z,60.91
2018-05-15T22:43:28.330Z,61.00
2018-05-15T22:45:54.718Z,60.94
2018-05-15T22:48:21.206Z,61.55
2018-05-15T22:50:47.742Z,61.58
2018-05-15T22:53:14.044Z,60.91
2018-05-15T22:55:40.597Z,61.12
2018-05-15T22:58:06.899Z,60.88
2018-05-15T23:00:33.297Z,60.64
2018-05-15T23:03:00.357Z,61.09
2018-05-15T23:05:26.662Z,61.53
2018-05-15T23:07:52.978Z,62.39
2018-05-15T23:10:19.547Z,62.57
2018-05-15T23:12:46.052Z,62.82
2018-05-15T23:15:12.393Z,63.13
2018-05-15T23:17:38.719Z,63.11
2018-05-15T23:20:05.400Z,63.11
2018-05-15T23:22:41.943Z,64.06
2018-05-15T23:25:09.024Z,64.86
2018-05-15T23:27:35.332Z,64.52
2018-05-15T23:30:02.609Z,65.30
2018-05-15T23:32:28.961Z,65.76
2018-05-15T23:34:55.293Z,66.33
2018-05-15T23:37:21.694Z,66.72
2018-05-15T23:39:48.025Z,66.75
2018-05-15T23:42:14.395Z,66.54
2018-05-15T23:44:40.785Z,66.32
2018-05-15T23:47:07.161Z,66.43
2018-05-15T23:49:33.507Z,67.21
2018-05-15T23:51:59.971Z,68.06
2018-05-15T23:54:27.012Z,67.83
2018-05-15T23:56:53.519Z,68.49
2018-05-15T23:59:19.916Z,68.66
